Fallon, NV (89496)

10:51 PM PDT on August 28, 2014 (GMT -0700)
MesoWest MASSIE NV US UPR | Change Station
CLOSE
Current Station
Personal Weather Station
Location: Fallon, NV
Elevation: 3962 ft
Nearby Weather Stations

Elev 3962 ft 39.64 °N, 118.91 °W | Updated 3 hours ago

Partly Cloudy
Partly Cloudy
86 °F
Feels Like 83 °F
N
Wind Variable Wind from North
Gusts 0.0 mph

Today
High -- | Low -- °F
--% Chance of Precip.
Yesterday
High -- | Low -- °F
Precip. -- in
6:19 AM 7:32 PM
Waxing Crescent, 12% visible
Pressure 29.95 in
Visibility 10.0 miles
Clouds Few 12000 ft
Few 20000 ft
Heat Index 83 °F
Dew Point Not available.
Humidity Not available.
Rainfall -999.00 in
Snow Depth Not available.
UV 0 out of 12
Pollen 8.40 out of 12
Air Quality Not available.
Flu Activity Not available.
METAR KNFL 290456Z 30007KT 10SM FEW120 FEW200 24/00 A3004 RMK AO2 SLP140 T02390000

More Conditions Fewer Conditions

Pressure 29.95 in
Visibility 10.0 miles
Clouds Few 12000 ft
Few 20000 ft
Heat Index 83 °F
Dew Point Not available.
Humidity Not available.
Rainfall -999.00 in
Snow Depth Not available.
UV 0 out of 12
Pollen 8.40 out of 12
Air Quality Not available.
Flu Activity Not available.
METAR KNFL 290456Z 30007KT 10SM FEW120 FEW200 24/00 A3004 RMK AO2 SLP140 T02390000

More Conditions Fewer Conditions

10-Day Weather Forecast

Almanac

Astronomy

Aug. 28, 2014 Rise Set
Actual Time 6:19 AM PDT 7:32 PM PDT
Civil Twilight 5:52 AM PDT 7:59 PM PDT
Nautical Twilight 5:18 AM PDT 8:32 PM PDT
Astronomical Twilight 4:44 AM PDT 9:07 PM PDT
Moon 9:15 AM PDT (8/28) 8:59 PM PDT (8/28)
Length of Visible Light 14h 07m
Length of Day
13h 12m
Tomorrow will be 2m 26s shorter.
Waxing Crescent, 12% of the Moon is Illuminated
Aug 29
Waxing Crescent
Sep 2
First Quarter
Sep 8
Full
Sep 15
Last Quarter
Sep 24
New

Yesterday's Extremes

State Highs State Lows

Community

WunderPhotos

Upload Photos

1,748,197 photos uploaded!

Nearby

Snow Depth

Station Depth Elevation
Big Creek Summit 0 in 8700 ft
Lewis Peak 0 in 7400 ft
Lamance Creek 0 in 6000 ft
Diamond Peak 1 in 8000 ft
Granite Peak 1 in 7800 ft

Earthquake Activity

City Distance Mag. Time & Date
No recent earthquake activity has been reported nearby.
Minimum magnitude displayed is 2.5.

Coastal Water Temperatures

Place Temperature
No Stations Reporting

Nearby Weather Stations